Time;durP1;ratioP1;P1;durP2;ratioP2;P2;SDS_P1;SDS_P2;PMS_P1;PMS_P2;Temp;Humidity;BMP_temperature;BMP_pressure;BME280_temperature;BME280_humidity;BME280_pressure;Samples;Min_cycle;Max_cycle;Signal;HPM_P1;HPM_P2
2021/09/02 00:01:36;;;;;;;7.80;6.85;;;14.90;99.90;;;;;;5086670;28;20491;-73
2021/09/02 00:04:04;;;;;;;7.95;6.00;;;14.90;99.90;;;;;;5086413;28;20223;-73
2021/09/02 00:06:32;;;;;;;7.00;6.30;;;14.90;99.90;;;;;;5085450;28;20687;-73
2021/09/02 00:08:59;;;;;;;6.75;5.93;;;14.80;99.90;;;;;;5084089;28;20207;-73
2021/09/02 00:11:28;;;;;;;8.05;5.82;;;14.80;99.90;;;;;;5085680;28;20227;-74
2021/09/02 00:13:55;;;;;;;6.60;5.45;;;14.70;99.90;;;;;;5076925;28;20223;-74
2021/09/02 00:16:22;;;;;;;7.20;6.15;;;14.70;99.90;;;;;;5076576;28;20206;-74
2021/09/02 00:18:49;;;;;;;7.68;6.18;;;14.70;99.90;;;;;;5076898;28;20235;-75
2021/09/02 00:21:16;;;;;;;8.93;6.15;;;14.80;99.90;;;;;;5076653;28;20402;-74
2021/09/02 00:23:44;;;;;;;7.78;5.90;;;14.70;99.90;;;;;;5076725;28;20569;-74
2021/09/02 00:26:11;;;;;;;5.47;4.97;;;14.70;99.90;;;;;;5076294;28;20859;-74
2021/09/02 00:28:37;;;;;;;6.18;5.57;;;14.70;99.90;;;;;;5076602;28;20204;-74
2021/09/02 00:31:04;;;;;;;7.30;5.70;;;14.60;99.90;;;;;;5075394;28;20294;-74
2021/09/02 00:33:31;;;;;;;7.70;6.15;;;14.60;99.90;;;;;;5076329;28;20314;-74
2021/09/02 00:35:58;;;;;;;7.00;6.30;;;14.60;99.90;;;;;;5076216;28;20556;-75
2021/09/02 00:38:25;;;;;;;7.13;5.97;;;14.50;99.90;;;;;;5076657;28;20294;-74
2021/09/02 00:40:53;;;;;;;8.50;5.60;;;14.60;99.90;;;;;;5076057;28;20307;-74
2021/09/02 00:43:20;;;;;;;6.38;5.78;;;14.60;99.90;;;;;;5076419;28;20311;-74
2021/09/02 00:45:47;;;;;;;8.93;6.40;;;14.60;99.90;;;;;;5076213;28;20578;-74
2021/09/02 00:48:15;;;;;;;7.03;5.53;;;14.50;99.90;;;;;;5076085;28;20294;-74
2021/09/02 00:50:42;;;;;;;7.63;5.82;;;14.50;99.90;;;;;;5076104;28;20315;-74
2021/09/02 00:53:09;;;;;;;7.28;5.97;;;14.50;99.90;;;;;;5076004;28;20638;-74
2021/09/02 00:55:35;;;;;;;7.70;6.63;;;14.40;99.90;;;;;;5075795;28;20295;-73
2021/09/02 00:58:04;;;;;;;8.45;6.10;;;14.50;99.90;;;;;;5076286;28;20294;-74
2021/09/02 01:00:31;;;;;;;8.15;6.18;;;14.50;99.90;;;;;;5076580;28;20212;-74
2021/09/02 01:02:57;;;;;;;7.18;5.65;;;14.50;99.90;;;;;;5075687;28;20211;-74
2021/09/02 01:05:24;;;;;;;7.32;5.95;;;14.50;99.90;;;;;;5075420;28;20295;-74
2021/09/02 01:07:51;;;;;;;8.95;6.88;;;14.40;99.90;;;;;;5075604;28;20206;-74
2021/09/02 01:10:18;;;;;;;8.90;6.32;;;14.40;99.90;;;;;;5075952;28;20204;-74
2021/09/02 01:12:47;;;;;;;9.27;6.30;;;14.40;99.90;;;;;;5075854;28;20714;-75
2021/09/02 01:15:18;;;;;;;6.70;6.00;;;14.40;99.90;;;;;;5075453;28;20293;-74
2021/09/02 01:17:46;;;;;;;9.43;6.22;;;14.40;99.90;;;;;;5075653;28;20207;-74
2021/09/02 01:20:15;;;;;;;7.53;5.75;;;14.30;99.90;;;;;;5075751;28;20210;-74
2021/09/02 01:22:43;;;;;;;8.60;6.50;;;14.20;99.90;;;;;;5075092;28;20203;-75
2021/09/02 01:25:14;;;;;;;6.72;6.03;;;14.10;99.90;;;;;;5075596;28;20228;-74
2021/09/02 01:27:42;;;;;;;10.20;6.88;;;14.00;99.90;;;;;;5075213;28;20233;-74
2021/09/02 01:30:12;;;;;;;7.70;6.00;;;14.00;99.90;;;;;;5075576;28;20209;-74
2021/09/02 01:32:41;;;;;;;9.20;6.18;;;14.00;99.90;;;;;;5075265;28;20212;-75
2021/09/02 01:35:10;;;;;;;9.40;6.68;;;14.10;99.90;;;;;;5075389;28;20211;-74
2021/09/02 01:37:41;;;;;;;8.63;6.72;;;14.10;99.90;;;;;;5075492;28;20282;-74
2021/09/02 01:40:09;;;;;;;8.88;7.03;;;14.00;99.90;;;;;;5075242;28;20215;-75
2021/09/02 01:42:37;;;;;;;9.95;7.90;;;14.00;99.90;;;;;;5074363;28;20213;-74
2021/09/02 01:45:06;;;;;;;8.00;6.03;;;14.10;99.90;;;;;;5074800;28;20294;-75
2021/09/02 01:47:33;;;;;;;6.93;6.22;;;14.10;99.90;;;;;;5075057;28;20230;-74
2021/09/02 01:50:07;;;;;;;8.45;6.63;;;14.20;99.90;;;;;;5075182;28;20564;-74
2021/09/02 01:52:34;;;;;;;8.05;6.70;;;14.20;99.90;;;;;;5074668;28;20228;-74
2021/09/02 01:55:01;;;;;;;10.02;7.00;;;14.10;99.90;;;;;;5074511;28;20673;-74
2021/09/02 01:57:28;;;;;;;8.13;6.78;;;14.00;99.90;;;;;;5074786;28;20199;-74
2021/09/02 01:59:57;;;;;;;10.07;6.68;;;13.80;99.90;;;;;;5074876;28;20295;-74
2021/09/02 02:02:23;;;;;;;7.72;6.43;;;13.70;99.90;;;;;;5074931;28;20198;-74
2021/09/02 02:04:50;;;;;;;10.10;6.65;;;13.80;99.90;;;;;;5074955;28;20228;-74
2021/09/02 02:07:18;;;;;;;9.60;7.40;;;13.80;99.90;;;;;;5074363;28;20227;-74
2021/09/02 02:09:44;;;;;;;8.80;7.13;;;13.90;99.90;;;;;;5074496;28;20206;-74
2021/09/02 02:12:11;;;;;;;10.70;6.70;;;13.90;99.90;;;;;;5074565;28;20293;-74
2021/09/02 02:14:38;;;;;;;7.28;6.18;;;14.00;99.90;;;;;;5074788;28;20319;-74
2021/09/02 02:17:06;;;;;;;10.27;7.63;;;14.00;99.90;;;;;;5074517;28;20206;-74
2021/09/02 02:19:33;;;;;;;7.82;6.50;;;14.00;99.90;;;;;;5074612;28;20673;-74
2021/09/02 02:22:00;;;;;;;7.82;6.55;;;13.90;99.90;;;;;;5074023;28;20210;-74
2021/09/02 02:24:27;;;;;;;9.70;7.60;;;14.00;99.90;;;;;;5074232;28;20234;-74
2021/09/02 02:26:54;;;;;;;8.60;6.90;;;14.00;99.90;;;;;;5074143;28;20227;-74
2021/09/02 02:29:21;;;;;;;8.43;6.43;;;13.90;99.90;;;;;;5074391;28;20203;-74
2021/09/02 02:31:48;;;;;;;8.73;6.70;;;13.90;99.90;;;;;;5074439;28;20198;-74
2021/09/02 02:34:17;;;;;;;8.07;6.70;;;13.90;99.90;;;;;;5073980;28;20659;-73
2021/09/02 02:36:44;;;;;;;8.55;6.57;;;13.90;99.90;;;;;;5073932;28;20199;-74
2021/09/02 02:39:11;;;;;;;10.05;7.20;;;13.90;99.90;;;;;;5074119;28;20205;-74
2021/09/02 02:41:38;;;;;;;9.55;6.68;;;14.00;99.90;;;;;;5073686;28;20297;-74
2021/09/02 02:44:05;;;;;;;10.50;7.20;;;13.90;99.90;;;;;;5073701;28;20227;-74
2021/09/02 02:46:32;;;;;;;9.60;7.57;;;13.80;99.90;;;;;;5073402;28;20225;-75
2021/09/02 02:48:59;;;;;;;9.25;6.95;;;13.80;99.90;;;;;;5073907;28;20209;-74
2021/09/02 02:51:27;;;;;;;7.97;6.70;;;13.80;99.90;;;;;;5073946;28;20615;-74
2021/09/02 02:53:54;;;;;;;12.70;7.88;;;13.90;99.90;;;;;;5073098;28;20226;-74
2021/09/02 02:56:21;;;;;;;7.35;6.13;;;13.90;99.90;;;;;;5073765;28;20205;-74
2021/09/02 02:58:48;;;;;;;9.85;7.18;;;13.80;99.90;;;;;;5074027;28;20206;-74
2021/09/02 03:01:15;;;;;;;8.70;7.18;;;13.80;99.90;;;;;;5074120;28;20252;-75
2021/09/02 03:03:42;;;;;;;7.78;6.78;;;13.80;99.90;;;;;;5073825;28;20572;-74
2021/09/02 03:06:10;;;;;;;9.63;7.43;;;13.80;99.90;;;;;;5073125;28;20208;-74
2021/09/02 03:08:38;;;;;;;10.10;7.45;;;13.70;99.90;;;;;;5073548;28;20264;-74
2021/09/02 03:11:06;;;;;;;9.27;6.90;;;13.70;99.90;;;;;;5073812;28;20316;-74
2021/09/02 03:13:32;;;;;;;8.82;6.68;;;13.80;99.90;;;;;;5073707;28;20673;-73
2021/09/02 03:16:00;;;;;;;8.45;6.85;;;13.80;99.90;;;;;;5073366;28;20668;-74
2021/09/02 03:18:27;;;;;;;7.85;6.80;;;13.80;99.90;;;;;;5073634;28;20294;-74
2021/09/02 03:20:53;;;;;;;9.52;6.32;;;13.80;99.90;;;;;;5073726;28;20270;-74
2021/09/02 03:23:20;;;;;;;7.50;5.93;;;13.70;99.90;;;;;;5073646;28;20319;-74
2021/09/02 03:25:48;;;;;;;9.52;6.53;;;13.70;99.90;;;;;;5073290;28;20230;-74
2021/09/02 03:28:15;;;;;;;12.73;7.05;;;13.70;99.90;;;;;;5073210;28;20651;-74
2021/09/02 03:30:42;;;;;;;13.32;7.40;;;13.60;99.90;;;;;;5073132;28;20199;-74
2021/09/02 03:33:09;;;;;;;8.93;6.85;;;13.70;99.90;;;;;;5073426;28;20219;-74
2021/09/02 03:35:36;;;;;;;8.88;7.32;;;13.70;99.90;;;;;;5073292;28;20225;-74
2021/09/02 03:38:03;;;;;;;9.68;7.10;;;13.50;99.90;;;;;;5073157;28;20230;-74
2021/09/02 03:40:29;;;;;;;7.53;6.45;;;13.50;99.90;;;;;;5073507;28;20684;-75
2021/09/02 03:42:58;;;;;;;9.15;6.60;;;13.50;99.90;;;;;;5073292;28;20207;-74
2021/09/02 03:45:25;;;;;;;8.35;6.82;;;13.50;99.90;;;;;;5073201;28;20209;-74
2021/09/02 03:47:51;;;;;;;8.88;7.05;;;13.60;99.90;;;;;;5073355;28;20572;-74
2021/09/02 03:50:19;;;;;;;12.18;8.20;;;13.60;99.90;;;;;;5073464;28;20228;-74
2021/09/02 03:52:46;;;;;;;8.43;6.50;;;13.60;99.90;;;;;;5073456;28;20294;-74
2021/09/02 03:55:14;;;;;;;8.70;6.72;;;13.60;99.90;;;;;;5073555;28;20217;-74
2021/09/02 03:57:41;;;;;;;6.95;6.20;;;13.60;99.90;;;;;;5073137;28;20657;-74
2021/09/02 04:00:12;;;;;;;8.35;7.18;;;13.60;99.90;;;;;;5072967;28;20203;-75
2021/09/02 04:02:40;;;;;;;8.98;7.13;;;13.50;99.90;;;;;;5073170;28;20665;-74
2021/09/02 04:05:09;;;;;;;8.93;6.65;;;13.30;99.90;;;;;;5074783;28;20205;-74
2021/09/02 04:07:36;;;;;;;9.07;7.20;;;13.20;99.90;;;;;;5077078;28;20292;-74
2021/09/02 04:10:04;;;;;;;8.20;7.00;;;13.20;99.90;;;;;;5077191;28;20203;-74
2021/09/02 04:12:30;;;;;;;9.05;6.22;;;13.20;99.90;;;;;;5076767;28;20203;-74
2021/09/02 04:14:57;;;;;;;6.97;6.07;;;13.30;99.90;;;;;;5076467;28;20229;-74
2021/09/02 04:17:26;;;;;;;9.65;7.20;;;13.30;99.90;;;;;;5076884;28;20234;-74
2021/09/02 04:19:52;;;;;;;8.48;6.90;;;13.40;99.90;;;;;;5076772;28;20203;-74
2021/09/02 04:22:19;;;;;;;9.82;7.32;;;13.30;99.90;;;;;;5076928;28;20293;-74
2021/09/02 04:24:46;;;;;;;8.80;6.53;;;13.30;99.90;;;;;;5076255;28;20322;-74
2021/09/02 04:27:14;;;;;;;9.30;6.57;;;13.20;99.90;;;;;;5076247;28;20261;-74
2021/09/02 04:29:41;;;;;;;8.90;6.43;;;13.30;99.90;;;;;;5076587;28;20622;-74
2021/09/02 04:32:09;;;;;;;8.50;6.53;;;13.40;99.90;;;;;;5076601;28;20203;-74
2021/09/02 04:34:38;;;;;;;9.48;6.82;;;13.40;99.90;;;;;;5076934;28;20230;-74
2021/09/02 04:37:05;;;;;;;8.80;6.25;;;13.40;99.90;;;;;;5076545;28;20222;-74
2021/09/02 04:39:32;;;;;;;8.35;6.35;;;13.40;99.90;;;;;;5076393;28;20210;-74
2021/09/02 04:41:59;;;;;;;9.98;6.95;;;13.40;99.90;;;;;;5076256;28;20581;-74
2021/09/02 04:44:26;;;;;;;7.97;6.68;;;13.40;99.90;;;;;;5076458;28;20707;-74
2021/09/02 04:46:53;;;;;;;9.52;6.80;;;13.40;99.90;;;;;;5075871;28;20670;-74
2021/09/02 04:49:20;;;;;;;8.50;6.53;;;13.40;99.90;;;;;;5076395;28;20681;-74
2021/09/02 04:51:48;;;;;;;9.30;6.60;;;13.40;99.90;;;;;;5075996;28;20293;-74
2021/09/02 04:54:16;;;;;;;9.10;6.80;;;13.30;99.90;;;;;;5076114;28;20409;-74
2021/09/02 04:56:42;;;;;;;9.82;7.18;;;13.30;99.90;;;;;;5076067;28;20206;-74
2021/09/02 04:59:09;;;;;;;8.85;7.00;;;13.30;99.90;;;;;;5076306;28;20293;-74
2021/09/02 05:01:36;;;;;;;9.90;7.10;;;13.30;99.90;;;;;;5076224;28;20231;-74
2021/09/02 05:04:03;;;;;;;8.65;6.97;;;13.40;99.90;;;;;;5075740;28;20227;-74
2021/09/02 05:06:30;;;;;;;9.13;6.90;;;13.40;99.90;;;;;;5075285;28;20687;-74
2021/09/02 05:08:58;;;;;;;8.32;7.28;;;13.30;99.90;;;;;;5075927;28;20297;-74
2021/09/02 05:11:25;;;;;;;8.38;6.80;;;13.00;99.90;;;;;;5076006;28;20207;-74
2021/09/02 05:13:52;;;;;;;8.45;7.55;;;12.90;99.90;;;;;;5075938;28;20313;-75
2021/09/02 05:16:19;;;;;;;7.68;6.82;;;12.70;99.90;;;;;;5075057;28;20271;-74
2021/09/02 05:18:45;;;;;;;9.10;6.93;;;12.70;99.90;;;;;;5076382;28;20237;-74
2021/09/02 05:21:12;;;;;;;9.48;7.20;;;12.80;99.90;;;;;;5075573;28;20290;-74
2021/09/02 05:23:39;;;;;;;10.60;7.32;;;12.90;99.90;;;;;;5075612;28;20222;-74
2021/09/02 05:26:07;;;;;;;10.05;7.72;;;13.00;99.90;;;;;;5075273;28;20736;-74
2021/09/02 05:28:34;;;;;;;8.13;6.60;;;13.00;99.90;;;;;;5075583;28;20640;-74
2021/09/02 05:31:01;;;;;;;12.38;7.70;;;12.90;99.90;;;;;;5075246;28;20210;-74
2021/09/02 05:33:28;;;;;;;8.90;7.32;;;12.80;99.90;;;;;;5075157;28;20314;-74
2021/09/02 05:35:55;;;;;;;8.80;7.20;;;12.70;99.90;;;;;;5075029;28;20206;-74
2021/09/02 05:38:22;;;;;;;10.48;7.10;;;12.70;99.90;;;;;;5075370;28;20208;-74
2021/09/02 05:40:48;;;;;;;10.52;7.63;;;12.90;99.90;;;;;;5075108;28;20306;-74
2021/09/02 05:43:17;;;;;;;11.07;8.50;;;12.90;99.90;;;;;;5075196;28;20333;-74
2021/09/02 05:45:43;;;;;;;13.13;8.40;;;13.00;99.90;;;;;;5074898;28;20266;-75
2021/09/02 05:48:10;;;;;;;8.90;7.65;;;13.00;99.90;;;;;;5074777;28;20231;-74
2021/09/02 05:50:37;;;;;;;11.13;8.60;;;12.90;99.90;;;;;;5074921;28;20209;-74
2021/09/02 05:53:04;;;;;;;11.48;8.27;;;12.90;99.90;;;;;;5074971;28;20250;-74
2021/09/02 05:55:31;;;;;;;10.85;7.82;;;13.00;99.90;;;;;;5074981;28;20245;-74
2021/09/02 05:57:58;;;;;;;10.00;8.05;;;12.90;99.90;;;;;;5075095;28;20286;-74
2021/09/02 06:00:26;;;;;;;10.75;7.70;;;12.80;99.90;;;;;;5075049;28;20601;-74
2021/09/02 06:02:53;;;;;;;12.10;8.07;;;12.70;99.90;;;;;;5074574;28;20286;-74
2021/09/02 06:05:19;;;;;;;12.18;8.60;;;12.60;99.90;;;;;;5074251;28;20728;-74
2021/09/02 06:07:46;;;;;;;13.80;9.63;;;12.50;99.90;;;;;;5074402;28;20221;-74
2021/09/02 06:10:13;;;;;;;12.52;9.40;;;12.50;99.90;;;;;;5074813;28;20293;-74
2021/09/02 06:12:40;;;;;;;12.82;9.52;;;12.40;99.90;;;;;;5074856;28;20317;-74
2021/09/02 06:15:08;;;;;;;15.23;9.88;;;12.40;99.90;;;;;;5074992;28;20195;-74
2021/09/02 06:17:36;;;;;;;12.60;9.00;;;12.40;99.90;;;;;;5074488;28;20206;-74
2021/09/02 06:20:05;;;;;;;12.05;9.07;;;12.40;99.90;;;;;;5074469;28;20199;-73
2021/09/02 06:22:32;;;;;;;11.10;8.95;;;12.40;99.90;;;;;;5074390;28;20202;-73
2021/09/02 06:25:00;;;;;;;12.55;9.48;;;12.40;99.90;;;;;;5073886;28;20576;-73
2021/09/02 06:27:27;;;;;;;14.25;9.35;;;12.50;99.90;;;;;;5074502;28;20310;-73
2021/09/02 06:29:54;;;;;;;15.27;9.90;;;12.50;99.90;;;;;;5074187;28;20614;-73
2021/09/02 06:32:21;;;;;;;13.48;10.45;;;12.70;99.90;;;;;;5074262;28;20559;-73
2021/09/02 06:34:49;;;;;;;14.90;8.77;;;12.90;99.90;;;;;;5074257;28;20310;-73
2021/09/02 06:37:16;;;;;;;12.35;8.77;;;13.10;99.90;;;;;;5074340;28;20205;-73
2021/09/02 06:39:42;;;;;;;14.10;9.73;;;13.20;99.90;;;;;;5074012;28;20298;-73
2021/09/02 06:42:09;;;;;;;12.98;8.68;;;13.30;99.90;;;;;;5073582;28;20301;-73
2021/09/02 06:44:36;;;;;;;12.98;9.25;;;13.40;99.90;;;;;;5074094;28;20219;-73
2021/09/02 06:47:03;;;;;;;13.13;8.80;;;13.40;99.90;;;;;;5073900;28;20611;-74
2021/09/02 06:49:30;;;;;;;11.00;9.00;;;13.50;99.90;;;;;;5074124;28;20198;-73
2021/09/02 06:51:58;;;;;;;11.73;9.07;;;13.50;99.90;;;;;;5074253;28;20203;-73
2021/09/02 06:54:25;;;;;;;13.25;10.10;;;13.60;99.90;;;;;;5073645;28;20309;-73
2021/09/02 06:56:52;;;;;;;12.63;9.77;;;13.70;99.90;;;;;;5073624;28;20333;-73
2021/09/02 06:59:20;;;;;;;16.08;9.85;;;13.70;99.90;;;;;;5073882;28;20202;-73
2021/09/02 07:01:47;;;;;;;12.63;9.40;;;13.70;99.90;;;;;;5073943;28;20210;-73
2021/09/02 07:04:15;;;;;;;12.95;10.10;;;13.70;99.90;;;;;;5073822;28;20233;-73
2021/09/02 07:06:41;;;;;;;12.50;8.98;;;13.80;99.90;;;;;;5073953;28;20257;-73
2021/09/02 07:09:10;;;;;;;14.77;9.55;;;13.80;99.90;;;;;;5074067;28;20313;-73
2021/09/02 07:11:36;;;;;;;12.73;10.32;;;13.90;99.90;;;;;;5073721;28;20282;-74
2021/09/02 07:14:04;;;;;;;15.80;11.15;;;14.00;99.90;;;;;;5073863;28;20542;-74
2021/09/02 07:16:31;;;;;;;14.77;10.07;;;14.00;99.90;;;;;;5073577;28;20208;-73
2021/09/02 07:18:58;;;;;;;14.15;10.43;;;14.10;99.90;;;;;;5075064;28;20199;-73
2021/09/02 07:21:25;;;;;;;14.57;9.90;;;14.20;99.90;;;;;;5076868;28;20294;-73
2021/09/02 07:23:52;;;;;;;14.68;11.32;;;14.10;99.90;;;;;;5086583;28;20711;-73
2021/09/02 07:26:20;;;;;;;16.27;10.15;;;14.10;99.90;;;;;;5092429;28;20234;-73
2021/09/02 07:28:47;;;;;;;12.48;9.90;;;14.10;99.90;;;;;;5092223;28;20761;-73
2021/09/02 07:31:14;;;;;;;14.68;10.77;;;14.20;99.90;;;;;;5092258;28;20760;-73
2021/09/02 07:33:42;;;;;;;15.52;10.55;;;14.30;99.90;;;;;;5092046;28;20473;-72
2021/09/02 07:36:09;;;;;;;13.63;9.70;;;14.30;99.90;;;;;;5091774;28;20310;-72
2021/09/02 07:38:35;;;;;;;16.27;10.90;;;14.30;99.90;;;;;;5092478;28;20204;-73
2021/09/02 07:41:02;;;;;;;15.10;9.10;;;14.40;99.90;;;;;;5095185;28;20685;-73
2021/09/02 07:43:31;;;;;;;13.20;9.52;;;14.40;99.90;;;;;;5096073;28;20223;-72
2021/09/02 07:45:57;;;;;;;13.40;9.95;;;14.30;99.90;;;;;;5095904;28;20299;-73
2021/09/02 07:48:24;;;;;;;16.52;11.70;;;14.40;99.90;;;;;;5095970;28;20313;-73
2021/09/02 07:50:51;;;;;;;15.35;10.93;;;14.40;99.90;;;;;;5096125;28;20309;-73
2021/09/02 07:53:21;;;;;;;12.75;10.18;;;14.60;99.90;;;;;;5096051;28;20316;-73
2021/09/02 07:55:47;;;;;;;12.85;10.05;;;14.50;99.90;;;;;;5095554;28;20254;-73
2021/09/02 07:58:14;;;;;;;14.57;11.18;;;14.60;99.90;;;;;;5095971;28;20290;-73
2021/09/02 08:00:43;;;;;;;14.48;10.15;;;14.70;99.90;;;;;;5095860;28;20205;-73
2021/09/02 08:03:09;;;;;;;15.02;11.23;;;14.70;99.90;;;;;;5095778;28;20318;-74
2021/09/02 08:05:36;;;;;;;15.25;10.68;;;14.80;99.90;;;;;;5095298;28;20248;-75
2021/09/02 08:08:03;;;;;;;14.77;10.07;;;14.70;99.90;;;;;;5095863;28;20222;-74
2021/09/02 08:10:30;;;;;;;12.68;10.00;;;14.80;99.90;;;;;;5095823;28;20234;-75
2021/09/02 08:12:57;;;;;;;12.35;9.75;;;14.80;99.90;;;;;;5095851;28;20260;-75
2021/09/02 08:15:25;;;;;;;13.80;9.45;;;14.80;99.90;;;;;;5095330;28;20201;-75
2021/09/02 08:17:58;;;;;;;12.93;9.85;;;14.90;99.90;;;;;;5095262;28;20293;-75
2021/09/02 08:20:25;;;;;;;11.75;9.50;;;15.00;99.90;;;;;;5095720;28;20272;-75
2021/09/02 08:22:52;;;;;;;17.58;10.48;;;15.00;99.90;;;;;;5095934;28;20761;-73
2021/09/02 08:25:19;;;;;;;13.13;9.30;;;15.00;99.90;;;;;;5096996;28;20294;-74
2021/09/02 08:27:46;;;;;;;14.35;9.60;;;15.10;99.90;;;;;;5096645;28;20214;-74
2021/09/02 08:30:14;;;;;;;13.95;9.70;;;15.20;99.90;;;;;;5097169;28;20289;-73
2021/09/02 08:32:47;;;;;;;9.60;7.97;;;15.30;99.90;;;;;;5097188;28;20342;-73
2021/09/02 08:35:15;;;;;;;16.63;10.10;;;15.40;99.90;;;;;;5096564;28;20546;-73
2021/09/02 08:37:42;;;;;;;13.38;9.43;;;15.50;99.90;;;;;;5096783;28;20566;-73
2021/09/02 08:40:10;;;;;;;12.38;9.45;;;15.60;99.90;;;;;;5096703;28;20296;-73
2021/09/02 08:42:37;;;;;;;14.55;10.43;;;15.60;99.90;;;;;;5096251;28;20235;-73
2021/09/02 08:45:05;;;;;;;14.18;8.93;;;15.70;99.90;;;;;;5096800;28;20320;-73
2021/09/02 08:47:34;;;;;;;9.90;8.00;;;15.80;99.90;;;;;;5096427;28;20292;-73
2021/09/02 08:50:01;;;;;;;12.88;8.60;;;15.80;99.90;;;;;;5096412;28;20229;-73
2021/09/02 08:52:30;;;;;;;11.80;7.97;;;15.90;99.90;;;;;;5095756;28;20531;-73
2021/09/02 08:54:58;;;;;;;10.25;8.32;;;16.10;99.90;;;;;;5096538;28;20247;-73
2021/09/02 08:57:25;;;;;;;10.02;8.55;;;16.30;99.90;;;;;;5096023;28;20545;-73
2021/09/02 08:59:52;;;;;;;11.10;7.95;;;16.40;99.90;;;;;;5096151;28;20202;-73
2021/09/02 09:02:24;;;;;;;9.95;7.45;;;16.50;99.90;;;;;;5096185;28;20208;-73
2021/09/02 09:05:00;;;;;;;9.75;7.70;;;16.50;99.90;;;;;;5096217;28;20218;-73
2021/09/02 09:07:34;;;;;;;11.65;8.30;;;16.60;99.90;;;;;;5096533;28;20202;-73
2021/09/02 09:10:02;;;;;;;9.95;7.32;;;16.80;99.90;;;;;;5096311;28;20309;-73
2021/09/02 09:12:37;;;;;;;8.73;7.28;;;16.90;99.90;;;;;;5095947;28;20551;-73
2021/09/02 09:15:05;;;;;;;9.30;7.80;;;17.00;99.90;;;;;;5095960;28;20224;-73
2021/09/02 09:17:32;;;;;;;8.25;6.93;;;17.10;99.90;;;;;;5096002;28;20201;-73
2021/09/02 09:19:59;;;;;;;10.88;7.40;;;17.20;99.90;;;;;;5096075;28;20204;-73
2021/09/02 09:22:28;;;;;;;9.02;7.50;;;17.40;99.90;;;;;;5096092;28;20220;-72
2021/09/02 09:24:59;;;;;;;8.32;6.88;;;17.50;99.90;;;;;;5096196;28;20228;-73
2021/09/02 09:27:35;;;;;;;8.07;7.13;;;17.50;99.90;;;;;;5095724;28;20548;-73
2021/09/02 09:30:11;;;;;;;7.93;7.13;;;17.60;99.90;;;;;;5095783;28;20225;-72
2021/09/02 09:32:40;;;;;;;7.53;6.63;;;17.70;99.90;;;;;;5095933;28;20224;-73
2021/09/02 09:35:09;;;;;;;8.70;6.30;;;17.80;99.90;;;;;;5095922;28;20313;-73
2021/09/02 09:37:36;;;;;;;7.60;6.15;;;17.90;99.90;;;;;;5095465;28;20206;-73
2021/09/02 09:40:14;;;;;;;8.27;6.95;;;17.90;99.90;;;;;;5095296;28;20194;-73
2021/09/02 09:42:53;;;;;;;7.32;6.22;;;18.00;99.90;;;;;;5095460;28;20213;-73
2021/09/02 09:45:36;;;;;;;7.20;5.83;;;18.60;99.90;;;;;;5095590;28;20189;-73
2021/09/02 09:48:03;;;;;;;6.20;5.60;;;20.20;99.90;;;;;;5095233;28;20534;-73
2021/09/02 09:50:30;;;;;;;7.50;6.20;;;22.10;99.90;;;;;;5095305;28;20454;-73
2021/09/02 09:52:57;;;;;;;6.17;5.57;;;23.80;99.90;;;;;;5095299;28;20455;-74
2021/09/02 09:55:25;;;;;;;5.87;5.30;;;25.50;98.70;;;;;;5095267;28;20801;-73
2021/09/02 09:57:52;;;;;;;6.77;5.50;;;26.70;94.10;;;;;;5095351;28;20450;-74
2021/09/02 10:00:20;;;;;;;5.83;5.23;;;28.40;89.60;;;;;;5094980;28;20531;-73
2021/09/02 10:02:49;;;;;;;5.60;5.00;;;28.80;78.50;;;;;;5094650;28;20527;-73
2021/09/02 10:05:19;;;;;;;5.87;5.37;;;29.30;75.40;;;;;;5094923;28;20452;-73
2021/09/02 10:07:48;;;;;;;5.80;4.80;;;29.70;70.60;;;;;;5095125;28;20438;-73
2021/09/02 10:10:17;;;;;;;6.00;5.40;;;29.30;71.30;;;;;;5095033;28;20498;-74
2021/09/02 10:12:48;;;;;;;5.53;4.97;;;29.30;75.00;;;;;;5094435;28;20440;-73
2021/09/02 10:15:16;;;;;;;5.63;5.13;;;29.80;65.40;;;;;;5094649;28;20511;-73
2021/09/02 10:17:44;;;;;;;5.00;4.57;;;30.40;67.20;;;;;;5094677;28;20913;-73
2021/09/02 10:20:16;;;;;;;5.80;5.30;;;31.10;62.80;;;;;;5094925;28;20445;-73
2021/09/02 10:22:43;;;;;;;4.60;4.20;;;31.40;58.90;;;;;;5094888;28;20483;-73
2021/09/02 10:25:37;;;;;;;4.50;4.10;;;31.90;58.00;;;;;;5094374;28;20428;-73
2021/09/02 10:28:07;;;;;;;4.57;4.17;;;32.60;57.40;;;;;;5094741;28;20479;-74
2021/09/02 10:30:43;;;;;;;5.43;4.93;;;33.00;55.00;;;;;;5094564;28;21011;-73
2021/09/02 10:33:41;;;;;;;4.50;4.10;;;33.50;52.70;;;;;;5094755;28;20470;-73
2021/09/02 10:36:43;;;;;;;5.10;4.70;;;33.30;52.90;;;;;;5031920;28;20526;-73
2021/09/02 10:39:10;;;;;;;5.17;4.77;;;33.30;50.80;;;;;;5094576;28;20436;-73
2021/09/02 10:41:48;;;;;;;4.97;4.57;;;33.30;49.70;;;;;;5094140;28;20491;-73
2021/09/02 10:44:19;;;;;;;5.03;4.63;;;33.80;48.60;;;;;;5093990;28;20462;-74
2021/09/02 10:46:46;;;;;;;5.63;5.13;;;33.40;48.90;;;;;;5094221;28;20436;-73
2021/09/02 10:49:22;;;;;;;5.40;4.90;;;33.40;49.40;;;;;;5094312;28;20478;-73
2021/09/02 10:51:50;;;;;;;5.60;5.10;;;33.20;50.10;;;;;;5094513;28;20439;-73
2021/09/02 10:54:22;;;;;;;5.27;4.77;;;32.60;49.40;;;;;;5093873;28;20476;-73
2021/09/02 10:56:57;;;;;;;5.17;4.77;;;31.70;50.30;;;;;;5094010;28;20444;-73
2021/09/02 10:59:46;;;;;;;4.93;4.53;;;30.80;52.50;;;;;;5094378;28;20464;-73
2021/09/02 11:02:43;;;;;;;5.33;4.83;;;30.40;53.00;;;;;;5094345;28;20440;-73
2021/09/02 11:05:11;;;;;;;5.20;4.80;;;30.00;54.20;;;;;;5093782;28;20910;-73
2021/09/02 11:07:40;;;;;;;4.50;4.10;;;29.70;54.00;;;;;;5094063;28;20442;-73
2021/09/02 11:10:09;;;;;;;5.43;5.00;;;30.10;53.90;;;;;;5093908;28;20472;-73
2021/09/02 11:12:35;;;;;;;4.97;4.47;;;30.20;54.80;;;;;;5094170;28;20543;-73
2021/09/02 11:15:05;;;;;;;5.87;5.27;;;30.80;52.70;;;;;;5093267;28;20555;-73
2021/09/02 11:17:32;;;;;;;4.83;4.33;;;31.30;51.10;;;;;;5093859;28;20786;-73
2021/09/02 11:19:59;;;;;;;4.27;3.87;;;31.40;49.30;;;;;;5093707;28;20992;-73
2021/09/02 11:22:26;;;;;;;5.70;5.20;;;31.70;51.50;;;;;;5093966;28;20472;-73
2021/09/02 11:24:54;;;;;;;4.60;4.20;;;32.10;49.90;;;;;;5094034;28;20472;-74
2021/09/02 11:27:29;;;;;;;4.90;4.40;;;32.30;48.90;;;;;;5093570;28;20485;-73
2021/09/02 11:30:13;;;;;;;4.23;3.83;;;32.40;47.60;;;;;;5093653;28;20482;-73
2021/09/02 11:32:40;;;;;;;4.23;3.93;;;32.40;50.20;;;;;;5093714;28;20928;-73
2021/09/02 11:35:08;;;;;;;4.70;4.20;;;32.00;48.20;;;;;;5093774;28;20470;-74
2021/09/02 11:37:40;;;;;;;3.87;3.50;;;31.40;48.50;;;;;;5093883;28;20527;-73
2021/09/02 11:40:08;;;;;;;4.50;4.10;;;30.70;49.20;;;;;;5093922;28;20519;-73
2021/09/02 11:42:36;;;;;;;4.60;4.20;;;30.20;50.80;;;;;;5093291;28;20531;-73
2021/09/02 11:45:04;;;;;;;4.10;3.80;;;29.70;52.50;;;;;;5093197;28;20857;-73
2021/09/02 11:47:36;;;;;;;4.63;4.03;;;28.90;52.40;;;;;;5093607;28;20528;-73
2021/09/02 11:50:05;;;;;;;4.80;4.30;;;28.40;53.40;;;;;;5093322;28;20795;-73
2021/09/02 11:52:40;;;;;;;5.37;3.50;;;27.90;55.90;;;;;;5093839;28;20436;-73
2021/09/02 11:55:08;;;;;;;4.43;4.03;;;27.30;55.90;;;;;;5093012;28;20463;-73
2021/09/02 11:57:35;;;;;;;4.50;4.00;;;26.90;60.10;;;;;;5093450;28;20454;-73
2021/09/02 12:00:02;;;;;;;4.60;4.20;;;26.30;59.50;;;;;;5093526;28;21025;-73
2021/09/02 12:02:28;;;;;;;3.97;3.53;;;26.10;60.70;;;;;;5093717;28;20471;-73
2021/09/02 12:04:57;;;;;;;5.43;3.97;;;26.00;59.70;;;;;;5092985;28;20515;-73
2021/09/02 12:07:24;;;;;;;3.83;3.53;;;26.00;59.30;;;;;;5093407;28;20515;-73
2021/09/02 12:09:52;;;;;;;3.97;3.67;;;25.90;59.60;;;;;;5093419;28;20586;-72
2021/09/02 12:12:32;;;;;;;3.90;3.60;;;25.70;59.50;;;;;;5093515;28;20440;-72
2021/09/02 12:14:59;;;;;;;3.80;3.50;;;25.60;60.30;;;;;;5093610;28;20482;-72
2021/09/02 12:17:35;;;;;;;4.03;3.63;;;25.60;63.10;;;;;;5093118;28;20440;-72
2021/09/02 12:20:06;;;;;;;4.97;3.90;;;25.50;61.40;;;;;;5093066;28;20444;-72
2021/09/02 12:22:34;;;;;;;4.27;3.87;;;25.50;62.30;;;;;;5093646;28;20863;-72
2021/09/02 12:25:09;;;;;;;3.70;3.40;;;25.60;63.80;;;;;;5093301;28;20460;-72
2021/09/02 12:27:44;;;;;;;5.37;4.60;;;25.50;63.20;;;;;;5096729;28;20467;-72
2021/09/02 12:30:12;;;;;;;5.03;4.53;;;25.40;63.80;;;;;;5096618;28;20511;-73
2021/09/02 12:32:38;;;;;;;4.20;3.70;;;25.20;63.30;;;;;;5096802;28;20785;-72
2021/09/02 12:35:15;;;;;;;4.07;3.77;;;25.20;61.10;;;;;;5096666;28;20467;-73
2021/09/02 12:37:42;;;;;;;3.30;3.00;;;25.30;62.90;;;;;;5096951;28;20436;-72
2021/09/02 12:40:17;;;;;;;3.87;3.40;;;25.30;67.70;;;;;;5096873;28;20444;-72
2021/09/02 12:42:47;;;;;;;3.73;3.43;;;25.30;63.40;;;;;;5096194;28;20502;-72
2021/09/02 12:45:18;;;;;;;4.00;3.60;;;25.40;62.80;;;;;;5096347;28;20448;-72
2021/09/02 12:47:45;;;;;;;4.47;3.50;;;25.30;62.80;;;;;;5096485;28;20444;-73
2021/09/02 12:50:19;;;;;;;3.87;3.40;;;25.20;66.30;;;;;;5096558;28;20487;-72